sensor_id;sensor_type;location;lat;lon;timestamp;P1;durP1;ratioP1;P2;durP2;ratioP2
78288;SDS011;67539;48.752;12.922;2023-07-08T00:00:18;10.03;;;8.53;;
78288;SDS011;67539;48.752;12.922;2023-07-08T00:02:51;11.37;;;8.10;;
78288;SDS011;67539;48.752;12.922;2023-07-08T00:05:21;9.73;;;8.57;;
78288;SDS011;67539;48.752;12.922;2023-07-08T00:07:51;9.50;;;8.60;;
78288;SDS011;67539;48.752;12.922;2023-07-08T00:10:20;10.03;;;9.13;;
78288;SDS011;67539;48.752;12.922;2023-07-08T00:12:51;8.80;;;8.00;;
78288;SDS011;67539;48.752;12.922;2023-07-08T00:15:20;9.13;;;8.23;;
78288;SDS011;67539;48.752;12.922;2023-07-08T00:17:54;8.30;;;7.50;;
78288;SDS011;67539;48.752;12.922;2023-07-08T00:20:23;7.67;;;6.97;;
78288;SDS011;67539;48.752;12.922;2023-07-08T00:22:58;10.33;;;8.23;;
78288;SDS011;67539;48.752;12.922;2023-07-08T00:25:28;8.27;;;7.50;;
78288;SDS011;67539;48.752;12.922;2023-07-08T00:27:57;9.40;;;7.10;;
78288;SDS011;67539;48.752;12.922;2023-07-08T00:30:27;9.23;;;7.60;;
78288;SDS011;67539;48.752;12.922;2023-07-08T00:32:58;8.50;;;7.70;;
78288;SDS011;67539;48.752;12.922;2023-07-08T00:35:28;8.40;;;7.60;;
78288;SDS011;67539;48.752;12.922;2023-07-08T00:37:59;9.63;;;7.73;;
78288;SDS011;67539;48.752;12.922;2023-07-08T00:40:29;8.27;;;7.47;;
78288;SDS011;67539;48.752;12.922;2023-07-08T00:42:59;9.60;;;8.63;;
78288;SDS011;67539;48.752;12.922;2023-07-08T00:45:35;9.90;;;8.90;;
78288;SDS011;67539;48.752;12.922;2023-07-08T00:48:25;8.60;;;7.70;;
78288;SDS011;67539;48.752;12.922;2023-07-08T00:50:57;10.07;;;8.67;;
78288;SDS011;67539;48.752;12.922;2023-07-08T00:53:26;9.37;;;8.33;;
78288;SDS011;67539;48.752;12.922;2023-07-08T00:55:57;8.77;;;7.87;;
78288;SDS011;67539;48.752;12.922;2023-07-08T00:58:29;9.17;;;8.23;;
78288;SDS011;67539;48.752;12.922;2023-07-08T01:01:01;9.70;;;8.07;;
78288;SDS011;67539;48.752;12.922;2023-07-08T01:03:36;9.10;;;7.10;;
78288;SDS011;67539;48.752;12.922;2023-07-08T01:06:10;8.03;;;7.30;;
78288;SDS011;67539;48.752;12.922;2023-07-08T01:08:39;8.00;;;7.20;;
78288;SDS011;67539;48.752;12.922;2023-07-08T01:11:09;8.03;;;7.33;;
78288;SDS011;67539;48.752;12.922;2023-07-08T01:13:39;8.20;;;7.40;;
78288;SDS011;67539;48.752;12.922;2023-07-08T01:16:10;8.47;;;7.67;;
78288;SDS011;67539;48.752;12.922;2023-07-08T01:18:41;8.23;;;7.10;;
78288;SDS011;67539;48.752;12.922;2023-07-08T01:21:29;9.23;;;7.77;;
78288;SDS011;67539;48.752;12.922;2023-07-08T01:24:02;7.87;;;6.70;;
78288;SDS011;67539;48.752;12.922;2023-07-08T01:26:34;9.90;;;7.20;;
78288;SDS011;67539;48.752;12.922;2023-07-08T01:29:05;9.60;;;7.10;;
78288;SDS011;67539;48.752;12.922;2023-07-08T01:31:34;7.53;;;6.50;;
78288;SDS011;67539;48.752;12.922;2023-07-08T01:34:03;7.50;;;6.73;;
78288;SDS011;67539;48.752;12.922;2023-07-08T01:36:34;6.63;;;6.07;;
78288;SDS011;67539;48.752;12.922;2023-07-08T01:39:11;7.90;;;7.20;;
78288;SDS011;67539;48.752;12.922;2023-07-08T01:41:43;7.00;;;6.33;;
78288;SDS011;67539;48.752;12.922;2023-07-08T01:44:21;8.07;;;7.27;;
78288;SDS011;67539;48.752;12.922;2023-07-08T01:46:55;8.07;;;7.30;;
78288;SDS011;67539;48.752;12.922;2023-07-08T01:49:27;8.17;;;7.37;;
78288;SDS011;67539;48.752;12.922;2023-07-08T01:51:56;7.20;;;6.50;;
78288;SDS011;67539;48.752;12.922;2023-07-08T01:54:27;8.63;;;7.73;;
78288;SDS011;67539;48.752;12.922;2023-07-08T01:56:55;7.83;;;7.10;;
78288;SDS011;67539;48.752;12.922;2023-07-08T01:59:24;8.10;;;7.40;;
78288;SDS011;67539;48.752;12.922;2023-07-08T02:01:52;8.50;;;7.27;;
78288;SDS011;67539;48.752;12.922;2023-07-08T02:04:22;7.40;;;6.70;;
78288;SDS011;67539;48.752;12.922;2023-07-08T02:06:51;8.30;;;6.57;;
78288;SDS011;67539;48.752;12.922;2023-07-08T02:09:20;8.10;;;7.37;;
78288;SDS011;67539;48.752;12.922;2023-07-08T02:11:51;8.43;;;7.53;;
78288;SDS011;67539;48.752;12.922;2023-07-08T02:14:19;9.90;;;8.00;;
78288;SDS011;67539;48.752;12.922;2023-07-08T02:16:47;8.90;;;8.00;;
78288;SDS011;67539;48.752;12.922;2023-07-08T02:19:15;10.10;;;9.10;;
78288;SDS011;67539;48.752;12.922;2023-07-08T02:21:43;10.17;;;8.87;;
78288;SDS011;67539;48.752;12.922;2023-07-08T02:24:11;10.70;;;9.60;;
78288;SDS011;67539;48.752;12.922;2023-07-08T02:26:43;11.03;;;9.97;;
78288;SDS011;67539;48.752;12.922;2023-07-08T02:29:15;9.90;;;8.90;;
78288;SDS011;67539;48.752;12.922;2023-07-08T02:31:43;10.37;;;9.33;;
78288;SDS011;67539;48.752;12.922;2023-07-08T02:34:12;10.40;;;9.00;;
78288;SDS011;67539;48.752;12.922;2023-07-08T02:36:40;11.60;;;9.30;;
78288;SDS011;67539;48.752;12.922;2023-07-08T02:39:11;11.57;;;9.57;;
78288;SDS011;67539;48.752;12.922;2023-07-08T02:41:39;11.37;;;10.13;;
78288;SDS011;67539;48.752;12.922;2023-07-08T02:44:07;10.53;;;9.43;;
78288;SDS011;67539;48.752;12.922;2023-07-08T02:46:36;11.80;;;10.23;;
78288;SDS011;67539;48.752;12.922;2023-07-08T02:49:05;10.57;;;9.50;;
78288;SDS011;67539;48.752;12.922;2023-07-08T02:51:33;10.17;;;9.10;;
78288;SDS011;67539;48.752;12.922;2023-07-08T02:54:01;10.23;;;9.20;;
78288;SDS011;67539;48.752;12.922;2023-07-08T02:56:29;9.90;;;8.90;;
78288;SDS011;67539;48.752;12.922;2023-07-08T02:58:57;9.10;;;8.17;;
78288;SDS011;67539;48.752;12.922;2023-07-08T03:01:26;9.10;;;8.30;;
78288;SDS011;67539;48.752;12.922;2023-07-08T03:03:55;10.23;;;9.20;;
78288;SDS011;67539;48.752;12.922;2023-07-08T03:06:24;10.67;;;9.03;;
78288;SDS011;67539;48.752;12.922;2023-07-08T03:08:53;8.70;;;7.90;;
78288;SDS011;67539;48.752;12.922;2023-07-08T03:11:21;9.80;;;8.77;;
78288;SDS011;67539;48.752;12.922;2023-07-08T03:13:49;9.37;;;8.47;;
78288;SDS011;67539;48.752;12.922;2023-07-08T03:16:17;9.70;;;8.50;;
78288;SDS011;67539;48.752;12.922;2023-07-08T03:18:45;10.53;;;8.13;;
78288;SDS011;67539;48.752;12.922;2023-07-08T03:21:16;9.57;;;8.57;;
78288;SDS011;67539;48.752;12.922;2023-07-08T03:23:46;10.97;;;9.03;;
78288;SDS011;67539;48.752;12.922;2023-07-08T03:26:16;9.33;;;8.33;;
78288;SDS011;67539;48.752;12.922;2023-07-08T03:28:47;10.90;;;8.70;;
78288;SDS011;67539;48.752;12.922;2023-07-08T03:31:17;10.10;;;8.37;;
78288;SDS011;67539;48.752;12.922;2023-07-08T03:33:45;9.43;;;8.30;;
78288;SDS011;67539;48.752;12.922;2023-07-08T03:36:17;9.80;;;8.87;;
78288;SDS011;67539;48.752;12.922;2023-07-08T03:38:50;9.37;;;8.10;;
78288;SDS011;67539;48.752;12.922;2023-07-08T03:41:19;9.00;;;7.73;;
78288;SDS011;67539;48.752;12.922;2023-07-08T03:43:48;9.53;;;8.70;;
78288;SDS011;67539;48.752;12.922;2023-07-08T03:46:18;9.40;;;8.40;;
78288;SDS011;67539;48.752;12.922;2023-07-08T03:48:48;9.13;;;8.23;;
78288;SDS011;67539;48.752;12.922;2023-07-08T03:51:20;8.90;;;8.00;;
78288;SDS011;67539;48.752;12.922;2023-07-08T03:53:50;8.03;;;7.23;;
78288;SDS011;67539;48.752;12.922;2023-07-08T03:56:21;9.43;;;8.40;;
78288;SDS011;67539;48.752;12.922;2023-07-08T03:58:49;9.77;;;8.13;;
78288;SDS011;67539;48.752;12.922;2023-07-08T04:01:18;8.70;;;7.87;;
78288;SDS011;67539;48.752;12.922;2023-07-08T04:03:49;14.90;;;9.03;;
78288;SDS011;67539;48.752;12.922;2023-07-08T04:06:20;10.17;;;8.53;;
78288;SDS011;67539;48.752;12.922;2023-07-08T04:08:48;10.00;;;8.70;;
78288;SDS011;67539;48.752;12.922;2023-07-08T04:11:18;10.00;;;9.03;;
78288;SDS011;67539;48.752;12.922;2023-07-08T04:13:48;9.93;;;8.27;;
78288;SDS011;67539;48.752;12.922;2023-07-08T04:16:17;11.27;;;9.20;;
78288;SDS011;67539;48.752;12.922;2023-07-08T04:18:48;10.40;;;8.60;;
78288;SDS011;67539;48.752;12.922;2023-07-08T04:21:21;9.83;;;8.80;;
78288;SDS011;67539;48.752;12.922;2023-07-08T04:23:51;9.13;;;8.00;;
78288;SDS011;67539;48.752;12.922;2023-07-08T04:26:20;9.17;;;8.30;;
78288;SDS011;67539;48.752;12.922;2023-07-08T04:28:49;9.43;;;8.53;;
78288;SDS011;67539;48.752;12.922;2023-07-08T04:31:18;9.17;;;8.27;;
78288;SDS011;67539;48.752;12.922;2023-07-08T04:33:46;9.27;;;8.40;;
78288;SDS011;67539;48.752;12.922;2023-07-08T04:36:14;9.30;;;8.47;;
78288;SDS011;67539;48.752;12.922;2023-07-08T04:38:44;12.17;;;9.23;;
78288;SDS011;67539;48.752;12.922;2023-07-08T04:41:13;12.63;;;8.73;;
78288;SDS011;67539;48.752;12.922;2023-07-08T04:43:41;11.50;;;8.87;;
78288;SDS011;67539;48.752;12.922;2023-07-08T04:46:14;8.70;;;7.90;;
78288;SDS011;67539;48.752;12.922;2023-07-08T04:48:48;11.93;;;8.20;;
78288;SDS011;67539;48.752;12.922;2023-07-08T04:51:16;10.30;;;8.50;;
78288;SDS011;67539;48.752;12.922;2023-07-08T04:53:46;11.97;;;9.27;;
78288;SDS011;67539;48.752;12.922;2023-07-08T04:56:16;11.90;;;9.03;;
78288;SDS011;67539;48.752;12.922;2023-07-08T04:58:45;8.63;;;7.83;;
78288;SDS011;67539;48.752;12.922;2023-07-08T05:01:13;9.03;;;8.10;;
78288;SDS011;67539;48.752;12.922;2023-07-08T05:03:42;8.73;;;7.87;;
78288;SDS011;67539;48.752;12.922;2023-07-08T05:06:10;10.00;;;8.60;;
78288;SDS011;67539;48.752;12.922;2023-07-08T05:08:38;8.53;;;7.73;;
78288;SDS011;67539;48.752;12.922;2023-07-08T05:11:07;9.80;;;8.70;;
78288;SDS011;67539;48.752;12.922;2023-07-08T05:13:35;8.73;;;7.83;;
78288;SDS011;67539;48.752;12.922;2023-07-08T05:16:03;11.50;;;8.63;;
78288;SDS011;67539;48.752;12.922;2023-07-08T05:18:32;8.80;;;8.00;;
78288;SDS011;67539;48.752;12.922;2023-07-08T05:21:01;11.03;;;7.90;;
78288;SDS011;67539;48.752;12.922;2023-07-08T05:23:30;9.20;;;8.20;;
78288;SDS011;67539;48.752;12.922;2023-07-08T05:25:58;10.40;;;9.17;;
78288;SDS011;67539;48.752;12.922;2023-07-08T05:28:29;9.00;;;8.20;;
78288;SDS011;67539;48.752;12.922;2023-07-08T05:30:57;9.07;;;8.17;;
78288;SDS011;67539;48.752;12.922;2023-07-08T05:33:27;8.90;;;8.00;;
78288;SDS011;67539;48.752;12.922;2023-07-08T05:35:56;7.53;;;6.87;;
78288;SDS011;67539;48.752;12.922;2023-07-08T05:38:25;8.63;;;7.77;;
78288;SDS011;67539;48.752;12.922;2023-07-08T05:40:54;7.73;;;7.03;;
78288;SDS011;67539;48.752;12.922;2023-07-08T05:43:24;7.90;;;7.17;;
78288;SDS011;67539;48.752;12.922;2023-07-08T05:45:58;7.87;;;6.60;;
78288;SDS011;67539;48.752;12.922;2023-07-08T05:48:38;7.37;;;6.67;;
78288;SDS011;67539;48.752;12.922;2023-07-08T05:51:06;7.77;;;6.90;;
78288;SDS011;67539;48.752;12.922;2023-07-08T05:53:35;6.80;;;6.20;;
78288;SDS011;67539;48.752;12.922;2023-07-08T05:56:03;6.23;;;5.63;;
78288;SDS011;67539;48.752;12.922;2023-07-08T05:58:31;6.73;;;6.13;;
78288;SDS011;67539;48.752;12.922;2023-07-08T06:01:00;7.00;;;6.30;;
78288;SDS011;67539;48.752;12.922;2023-07-08T06:03:29;6.80;;;6.20;;
78288;SDS011;67539;48.752;12.922;2023-07-08T06:05:57;6.67;;;6.07;;
78288;SDS011;67539;48.752;12.922;2023-07-08T06:08:27;6.73;;;6.10;;
78288;SDS011;67539;48.752;12.922;2023-07-08T06:10:55;6.77;;;6.17;;
78288;SDS011;67539;48.752;12.922;2023-07-08T06:13:24;7.37;;;6.77;;
78288;SDS011;67539;48.752;12.922;2023-07-08T06:15:52;5.87;;;5.37;;
78288;SDS011;67539;48.752;12.922;2023-07-08T06:18:21;6.60;;;6.00;;
78288;SDS011;67539;48.752;12.922;2023-07-08T06:20:50;6.00;;;5.50;;
78288;SDS011;67539;48.752;12.922;2023-07-08T06:23:19;7.10;;;6.23;;
78288;SDS011;67539;48.752;12.922;2023-07-08T06:25:47;6.63;;;5.40;;
78288;SDS011;67539;48.752;12.922;2023-07-08T06:28:16;6.60;;;5.70;;
78288;SDS011;67539;48.752;12.922;2023-07-08T06:30:44;6.00;;;5.50;;
78288;SDS011;67539;48.752;12.922;2023-07-08T06:33:13;6.40;;;5.80;;
78288;SDS011;67539;48.752;12.922;2023-07-08T06:35:42;6.57;;;5.97;;
78288;SDS011;67539;48.752;12.922;2023-07-08T06:38:11;5.93;;;5.43;;
78288;SDS011;67539;48.752;12.922;2023-07-08T06:40:40;7.40;;;6.10;;
78288;SDS011;67539;48.752;12.922;2023-07-08T06:43:08;7.43;;;6.70;;
78288;SDS011;67539;48.752;12.922;2023-07-08T06:45:45;7.37;;;5.90;;
78288;SDS011;67539;48.752;12.922;2023-07-08T06:48:13;6.90;;;6.30;;
78288;SDS011;67539;48.752;12.922;2023-07-08T06:50:45;6.23;;;5.70;;
78288;SDS011;67539;48.752;12.922;2023-07-08T06:53:13;6.93;;;6.23;;
78288;SDS011;67539;48.752;12.922;2023-07-08T06:55:43;6.23;;;5.63;;
78288;SDS011;67539;48.752;12.922;2023-07-08T06:58:11;6.87;;;6.33;;
78288;SDS011;67539;48.752;12.922;2023-07-08T07:00:41;5.50;;;5.10;;
78288;SDS011;67539;48.752;12.922;2023-07-08T07:03:09;5.80;;;5.30;;
78288;SDS011;67539;48.752;12.922;2023-07-08T07:05:38;5.67;;;5.27;;
78288;SDS011;67539;48.752;12.922;2023-07-08T07:08:08;5.43;;;5.00;;
78288;SDS011;67539;48.752;12.922;2023-07-08T07:10:37;5.73;;;5.30;;
78288;SDS011;67539;48.752;12.922;2023-07-08T07:13:05;6.27;;;5.77;;
78288;SDS011;67539;48.752;12.922;2023-07-08T07:15:33;6.10;;;5.60;;
78288;SDS011;67539;48.752;12.922;2023-07-08T07:18:02;5.63;;;4.90;;
78288;SDS011;67539;48.752;12.922;2023-07-08T07:20:30;5.60;;;5.10;;
78288;SDS011;67539;48.752;12.922;2023-07-08T07:23:00;5.83;;;5.23;;
78288;SDS011;67539;48.752;12.922;2023-07-08T07:25:29;5.23;;;4.83;;
78288;SDS011;67539;48.752;12.922;2023-07-08T07:27:57;5.83;;;5.43;;
78288;SDS011;67539;48.752;12.922;2023-07-08T07:30:25;5.13;;;4.73;;
78288;SDS011;67539;48.752;12.922;2023-07-08T07:32:54;5.97;;;5.47;;
78288;SDS011;67539;48.752;12.922;2023-07-08T07:35:25;6.37;;;5.70;;
78288;SDS011;67539;48.752;12.922;2023-07-08T07:37:53;6.33;;;5.83;;
78288;SDS011;67539;48.752;12.922;2023-07-08T07:40:22;5.60;;;5.20;;
78288;SDS011;67539;48.752;12.922;2023-07-08T07:42:51;6.30;;;5.73;;
78288;SDS011;67539;48.752;12.922;2023-07-08T07:45:19;5.60;;;5.13;;
78288;SDS011;67539;48.752;12.922;2023-07-08T07:47:49;5.40;;;5.00;;
78288;SDS011;67539;48.752;12.922;2023-07-08T07:50:17;5.67;;;5.17;;
78288;SDS011;67539;48.752;12.922;2023-07-08T07:52:45;5.77;;;5.30;;
78288;SDS011;67539;48.752;12.922;2023-07-08T07:55:13;6.03;;;5.63;;
78288;SDS011;67539;48.752;12.922;2023-07-08T07:57:42;6.30;;;5.70;;
78288;SDS011;67539;48.752;12.922;2023-07-08T08:00:13;5.93;;;5.43;;
78288;SDS011;67539;48.752;12.922;2023-07-08T08:02:43;5.67;;;5.27;;
78288;SDS011;67539;48.752;12.922;2023-07-08T08:05:11;5.70;;;5.30;;
78288;SDS011;67539;48.752;12.922;2023-07-08T08:07:39;6.10;;;5.50;;
78288;SDS011;67539;48.752;12.922;2023-07-08T08:10:08;6.03;;;5.53;;
78288;SDS011;67539;48.752;12.922;2023-07-08T08:12:36;6.67;;;6.00;;
78288;SDS011;67539;48.752;12.922;2023-07-08T08:15:21;6.30;;;5.70;;
78288;SDS011;67539;48.752;12.922;2023-07-08T08:17:49;6.23;;;5.67;;
78288;SDS011;67539;48.752;12.922;2023-07-08T08:20:19;5.97;;;5.57;;
78288;SDS011;67539;48.752;12.922;2023-07-08T08:22:49;6.43;;;5.83;;
78288;SDS011;67539;48.752;12.922;2023-07-08T08:25:19;6.13;;;5.63;;
78288;SDS011;67539;48.752;12.922;2023-07-08T08:27:48;5.73;;;5.37;;
78288;SDS011;67539;48.752;12.922;2023-07-08T08:30:18;5.97;;;5.47;;
78288;SDS011;67539;48.752;12.922;2023-07-08T08:32:47;6.43;;;5.93;;
78288;SDS011;67539;48.752;12.922;2023-07-08T08:35:15;6.13;;;5.63;;
78288;SDS011;67539;48.752;12.922;2023-07-08T08:37:44;6.20;;;5.70;;
78288;SDS011;67539;48.752;12.922;2023-07-08T08:40:13;6.37;;;5.77;;
78288;SDS011;67539;48.752;12.922;2023-07-08T08:42:50;6.47;;;5.97;;
78288;SDS011;67539;48.752;12.922;2023-07-08T08:45:20;5.80;;;5.47;;
78288;SDS011;67539;48.752;12.922;2023-07-08T08:47:54;5.83;;;5.27;;
78288;SDS011;67539;48.752;12.922;2023-07-08T08:50:28;5.47;;;5.07;;
78288;SDS011;67539;48.752;12.922;2023-07-08T08:52:59;7.80;;;5.43;;
78288;SDS011;67539;48.752;12.922;2023-07-08T08:55:31;5.90;;;5.37;;
78288;SDS011;67539;48.752;12.922;2023-07-08T08:58:02;5.27;;;4.93;;
78288;SDS011;67539;48.752;12.922;2023-07-08T09:00:42;5.67;;;5.27;;
78288;SDS011;67539;48.752;12.922;2023-07-08T09:03:26;6.33;;;5.90;;
78288;SDS011;67539;48.752;12.922;2023-07-08T09:06:04;6.00;;;5.60;;
78288;SDS011;67539;48.752;12.922;2023-07-08T09:08:42;6.27;;;5.73;;
78288;SDS011;67539;48.752;12.922;2023-07-08T09:11:15;8.33;;;6.23;;
78288;SDS011;67539;48.752;12.922;2023-07-08T09:13:57;5.70;;;5.30;;
78288;SDS011;67539;48.752;12.922;2023-07-08T09:16:28;6.30;;;5.70;;
78288;SDS011;67539;48.752;12.922;2023-07-08T09:19:11;5.60;;;5.20;;
78288;SDS011;67539;48.752;12.922;2023-07-08T09:21:42;5.73;;;5.23;;
78288;SDS011;67539;48.752;12.922;2023-07-08T09:24:16;5.30;;;5.00;;
78288;SDS011;67539;48.752;12.922;2023-07-08T09:26:47;5.77;;;5.33;;
78288;SDS011;67539;48.752;12.922;2023-07-08T09:29:17;6.13;;;5.63;;
78288;SDS011;67539;48.752;12.922;2023-07-08T09:31:45;6.30;;;5.80;;
78288;SDS011;67539;48.752;12.922;2023-07-08T09:34:15;6.20;;;5.77;;
78288;SDS011;67539;48.752;12.922;2023-07-08T09:36:46;6.30;;;5.70;;
78288;SDS011;67539;48.752;12.922;2023-07-08T09:39:16;5.80;;;5.30;;
78288;SDS011;67539;48.752;12.922;2023-07-08T09:41:46;5.90;;;5.50;;
78288;SDS011;67539;48.752;12.922;2023-07-08T09:44:17;6.20;;;5.80;;
78288;SDS011;67539;48.752;12.922;2023-07-08T09:46:53;6.20;;;5.47;;
78288;SDS011;67539;48.752;12.922;2023-07-08T09:49:24;5.67;;;5.27;;
78288;SDS011;67539;48.752;12.922;2023-07-08T09:51:55;6.93;;;6.17;;
78288;SDS011;67539;48.752;12.922;2023-07-08T09:54:23;5.70;;;5.30;;
78288;SDS011;67539;48.752;12.922;2023-07-08T09:56:57;5.70;;;5.20;;
78288;SDS011;67539;48.752;12.922;2023-07-08T09:59:28;5.30;;;4.90;;
78288;SDS011;67539;48.752;12.922;2023-07-08T10:02:02;5.80;;;5.30;;
78288;SDS011;67539;48.752;12.922;2023-07-08T10:04:48;5.77;;;5.37;;
78288;SDS011;67539;48.752;12.922;2023-07-08T10:07:20;5.70;;;5.30;;
78288;SDS011;67539;48.752;12.922;2023-07-08T10:09:48;6.20;;;5.70;;
78288;SDS011;67539;48.752;12.922;2023-07-08T10:12:20;5.80;;;5.30;;
78288;SDS011;67539;48.752;12.922;2023-07-08T10:14:51;5.60;;;5.20;;
78288;SDS011;67539;48.752;12.922;2023-07-08T10:17:24;5.70;;;5.20;;
78288;SDS011;67539;48.752;12.922;2023-07-08T10:19:54;5.70;;;5.30;;
78288;SDS011;67539;48.752;12.922;2023-07-08T10:22:32;5.43;;;5.13;;
78288;SDS011;67539;48.752;12.922;2023-07-08T10:25:09;5.90;;;5.50;;
78288;SDS011;67539;48.752;12.922;2023-07-08T10:27:46;5.27;;;4.87;;
78288;SDS011;67539;48.752;12.922;2023-07-08T10:30:20;7.27;;;6.03;;
78288;SDS011;67539;48.752;12.922;2023-07-08T10:33:00;6.00;;;5.50;;
78288;SDS011;67539;48.752;12.922;2023-07-08T10:35:45;6.70;;;6.20;;
78288;SDS011;67539;48.752;12.922;2023-07-08T10:38:22;6.17;;;5.77;;
78288;SDS011;67539;48.752;12.922;2023-07-08T10:41:03;6.10;;;5.60;;
78288;SDS011;67539;48.752;12.922;2023-07-08T10:43:42;6.53;;;5.73;;
78288;SDS011;67539;48.752;12.922;2023-07-08T10:46:26;6.20;;;5.70;;
78288;SDS011;67539;48.752;12.922;2023-07-08T10:49:07;5.07;;;4.77;;
78288;SDS011;67539;48.752;12.922;2023-07-08T10:51:57;6.40;;;5.90;;
78288;SDS011;67539;48.752;12.922;2023-07-08T10:54:44;5.57;;;5.17;;
78288;SDS011;67539;48.752;12.922;2023-07-08T10:57:34;5.90;;;5.50;;
78288;SDS011;67539;48.752;12.922;2023-07-08T11:00:16;5.53;;;5.03;;
78288;SDS011;67539;48.752;12.922;2023-07-08T11:02:59;5.70;;;5.30;;
78288;SDS011;67539;48.752;12.922;2023-07-08T11:05:42;6.33;;;5.73;;
78288;SDS011;67539;48.752;12.922;2023-07-08T11:08:15;6.10;;;5.70;;
78288;SDS011;67539;48.752;12.922;2023-07-08T11:10:48;8.10;;;5.50;;
78288;SDS011;67539;48.752;12.922;2023-07-08T11:13:36;5.90;;;5.50;;
78288;SDS011;67539;48.752;12.922;2023-07-08T11:16:12;9.33;;;5.80;;
78288;SDS011;67539;48.752;12.922;2023-07-08T11:18:47;5.90;;;5.30;;
78288;SDS011;67539;48.752;12.922;2023-07-08T11:21:20;5.47;;;5.17;;
78288;SDS011;67539;48.752;12.922;2023-07-08T11:23:54;6.40;;;5.63;;
78288;SDS011;67539;48.752;12.922;2023-07-08T11:26:27;6.40;;;5.50;;
78288;SDS011;67539;48.752;12.922;2023-07-08T11:28:58;5.10;;;4.80;;
78288;SDS011;67539;48.752;12.922;2023-07-08T11:31:28;5.73;;;5.23;;
78288;SDS011;67539;48.752;12.922;2023-07-08T11:34:00;6.40;;;5.90;;
78288;SDS011;67539;48.752;12.922;2023-07-08T11:36:29;5.57;;;5.03;;
78288;SDS011;67539;48.752;12.922;2023-07-08T11:39:00;6.50;;;5.83;;
78288;SDS011;67539;48.752;12.922;2023-07-08T11:41:31;6.80;;;4.80;;
78288;SDS011;67539;48.752;12.922;2023-07-08T11:44:02;5.10;;;4.70;;
78288;SDS011;67539;48.752;12.922;2023-07-08T11:46:32;5.87;;;5.47;;
78288;SDS011;67539;48.752;12.922;2023-07-08T11:49:02;5.17;;;4.87;;
78288;SDS011;67539;48.752;12.922;2023-07-08T11:51:34;5.10;;;4.80;;
78288;SDS011;67539;48.752;12.922;2023-07-08T11:54:11;5.43;;;4.90;;
78288;SDS011;67539;48.752;12.922;2023-07-08T11:56:48;5.80;;;5.40;;
78288;SDS011;67539;48.752;12.922;2023-07-08T11:59:25;5.43;;;5.00;;
78288;SDS011;67539;48.752;12.922;2023-07-08T12:02:00;6.50;;;5.53;;
78288;SDS011;67539;48.752;12.922;2023-07-08T12:04:31;6.30;;;5.70;;
78288;SDS011;67539;48.752;12.922;2023-07-08T12:07:02;5.63;;;5.23;;
78288;SDS011;67539;48.752;12.922;2023-07-08T12:09:37;5.77;;;5.37;;
78288;SDS011;67539;48.752;12.922;2023-07-08T12:12:09;5.53;;;4.90;;
78288;SDS011;67539;48.752;12.922;2023-07-08T12:14:44;5.80;;;5.40;;
78288;SDS011;67539;48.752;12.922;2023-07-08T12:17:12;5.73;;;5.23;;
78288;SDS011;67539;48.752;12.922;2023-07-08T12:19:40;6.00;;;5.50;;
78288;SDS011;67539;48.752;12.922;2023-07-08T12:22:10;7.00;;;6.30;;
78288;SDS011;67539;48.752;12.922;2023-07-08T12:24:40;5.70;;;5.30;;
78288;SDS011;67539;48.752;12.922;2023-07-08T12:27:09;7.43;;;6.40;;
78288;SDS011;67539;48.752;12.922;2023-07-08T12:29:39;5.70;;;5.20;;
78288;SDS011;67539;48.752;12.922;2023-07-08T12:32:09;6.03;;;5.53;;
78288;SDS011;67539;48.752;12.922;2023-07-08T12:34:39;5.27;;;4.97;;
78288;SDS011;67539;48.752;12.922;2023-07-08T12:37:12;5.87;;;5.47;;
78288;SDS011;67539;48.752;12.922;2023-07-08T12:39:42;5.10;;;4.70;;
78288;SDS011;67539;48.752;12.922;2023-07-08T12:42:10;5.20;;;4.80;;
78288;SDS011;67539;48.752;12.922;2023-07-08T12:44:39;5.83;;;5.30;;
78288;SDS011;67539;48.752;12.922;2023-07-08T12:47:10;5.27;;;4.77;;
78288;SDS011;67539;48.752;12.922;2023-07-08T12:49:38;6.23;;;4.80;;
78288;SDS011;67539;48.752;12.922;2023-07-08T12:52:17;5.37;;;4.97;;
78288;SDS011;67539;48.752;12.922;2023-07-08T12:54:51;5.20;;;4.80;;
78288;SDS011;67539;48.752;12.922;2023-07-08T12:57:19;5.70;;;5.10;;
78288;SDS011;67539;48.752;12.922;2023-07-08T12:59:47;5.87;;;5.47;;
78288;SDS011;67539;48.752;12.922;2023-07-08T13:02:16;5.20;;;4.70;;
78288;SDS011;67539;48.752;12.922;2023-07-08T13:04:47;4.90;;;4.60;;
78288;SDS011;67539;48.752;12.922;2023-07-08T13:07:31;4.97;;;4.67;;
78288;SDS011;67539;48.752;12.922;2023-07-08T13:10:03;5.80;;;5.40;;
78288;SDS011;67539;48.752;12.922;2023-07-08T13:12:34;4.50;;;4.20;;
78288;SDS011;67539;48.752;12.922;2023-07-08T13:15:08;5.70;;;5.30;;
78288;SDS011;67539;48.752;12.922;2023-07-08T13:17:41;5.43;;;4.93;;
78288;SDS011;67539;48.752;12.922;2023-07-08T13:20:10;5.60;;;5.10;;
78288;SDS011;67539;48.752;12.922;2023-07-08T13:22:42;5.27;;;4.87;;
78288;SDS011;67539;48.752;12.922;2023-07-08T13:25:15;5.97;;;5.47;;
78288;SDS011;67539;48.752;12.922;2023-07-08T13:27:54;5.00;;;4.70;;
78288;SDS011;67539;48.752;12.922;2023-07-08T13:30:24;6.97;;;5.40;;
78288;SDS011;67539;48.752;12.922;2023-07-08T13:32:54;6.03;;;5.53;;
78288;SDS011;67539;48.752;12.922;2023-07-08T13:35:24;5.20;;;4.80;;
78288;SDS011;67539;48.752;12.922;2023-07-08T13:37:55;5.73;;;5.30;;
78288;SDS011;67539;48.752;12.922;2023-07-08T13:40:27;6.40;;;5.43;;
78288;SDS011;67539;48.752;12.922;2023-07-08T13:42:56;6.40;;;5.80;;
78288;SDS011;67539;48.752;12.922;2023-07-08T13:45:25;5.87;;;5.37;;
78288;SDS011;67539;48.752;12.922;2023-07-08T13:47:59;5.30;;;4.87;;
78288;SDS011;67539;48.752;12.922;2023-07-08T13:50:31;5.40;;;5.00;;
78288;SDS011;67539;48.752;12.922;2023-07-08T13:53:15;5.23;;;4.83;;
78288;SDS011;67539;48.752;12.922;2023-07-08T13:55:46;4.97;;;4.67;;
78288;SDS011;67539;48.752;12.922;2023-07-08T13:58:15;5.30;;;4.90;;
78288;SDS011;67539;48.752;12.922;2023-07-08T14:00:45;4.93;;;4.63;;
78288;SDS011;67539;48.752;12.922;2023-07-08T14:03:13;5.70;;;5.20;;
78288;SDS011;67539;48.752;12.922;2023-07-08T14:05:45;5.13;;;4.73;;
78288;SDS011;67539;48.752;12.922;2023-07-08T14:08:13;5.07;;;4.67;;
78288;SDS011;67539;48.752;12.922;2023-07-08T14:10:42;5.67;;;5.27;;
78288;SDS011;67539;48.752;12.922;2023-07-08T14:13:12;4.87;;;4.57;;
78288;SDS011;67539;48.752;12.922;2023-07-08T14:15:42;4.50;;;4.20;;
78288;SDS011;67539;48.752;12.922;2023-07-08T14:18:10;5.13;;;4.73;;
78288;SDS011;67539;48.752;12.922;2023-07-08T14:20:39;4.60;;;4.30;;
78288;SDS011;67539;48.752;12.922;2023-07-08T14:23:08;4.83;;;4.53;;
78288;SDS011;67539;48.752;12.922;2023-07-08T14:25:39;5.03;;;4.70;;
78288;SDS011;67539;48.752;12.922;2023-07-08T14:28:07;5.40;;;4.90;;
78288;SDS011;67539;48.752;12.922;2023-07-08T14:30:39;4.67;;;4.47;;
78288;SDS011;67539;48.752;12.922;2023-07-08T14:33:11;4.20;;;4.00;;
78288;SDS011;67539;48.752;12.922;2023-07-08T14:35:40;4.87;;;4.57;;
78288;SDS011;67539;48.752;12.922;2023-07-08T14:38:09;4.37;;;4.07;;
78288;SDS011;67539;48.752;12.922;2023-07-08T14:40:39;5.23;;;4.13;;
78288;SDS011;67539;48.752;12.922;2023-07-08T14:43:10;5.00;;;4.60;;
78288;SDS011;67539;48.752;12.922;2023-07-08T14:45:44;5.47;;;5.07;;
78288;SDS011;67539;48.752;12.922;2023-07-08T14:48:16;5.03;;;4.73;;
78288;SDS011;67539;48.752;12.922;2023-07-08T14:50:45;5.20;;;4.90;;
78288;SDS011;67539;48.752;12.922;2023-07-08T14:53:13;4.60;;;4.30;;
78288;SDS011;67539;48.752;12.922;2023-07-08T14:55:43;5.13;;;4.83;;